createdAt,value
2022-10-12T00:00:15.401Z,4.68
2022-10-12T00:02:17.099Z,6.18
2022-10-12T00:04:18.809Z,6.25
2022-10-12T00:06:22.647Z,6.75
2022-10-12T00:08:24.499Z,5.18
2022-10-12T00:10:26.204Z,4.28
2022-10-12T00:12:27.959Z,4.13
2022-10-12T00:14:29.630Z,4.78
2022-10-12T00:16:31.899Z,4.68
2022-10-12T00:18:33.979Z,4.03
2022-10-12T00:20:35.664Z,4.50
2022-10-12T00:22:37.287Z,3.72
2022-10-12T00:24:42.164Z,3.78
2022-10-12T00:26:44.749Z,3.25
2022-10-12T00:28:46.661Z,3.00
2022-10-12T00:30:48.342Z,3.60
2022-10-12T00:32:50.010Z,2.92
2022-10-12T00:34:51.663Z,3.65
2022-10-12T00:36:55.738Z,3.78
2022-10-12T00:38:57.553Z,2.78
2022-10-12T00:40:59.246Z,3.33
2022-10-12T00:43:00.848Z,4.00
2022-10-12T00:45:02.705Z,3.30
2022-10-12T00:47:24.578Z,3.65
2022-10-12T00:49:26.544Z,2.55
2022-10-12T00:51:28.201Z,3.40
2022-10-12T00:53:34.645Z,2.95
2022-10-12T00:55:44.048Z,3.33
2022-10-12T00:57:47.735Z,3.30
2022-10-12T00:59:58.797Z,3.67
2022-10-12T01:02:00.570Z,4.50
2022-10-12T01:04:02.882Z,5.95
2022-10-12T01:06:06.651Z,5.68
2022-10-12T01:08:08.292Z,3.50
2022-10-12T01:10:10.249Z,4.25
2022-10-12T01:12:12.176Z,3.03
2022-10-12T01:14:14.082Z,3.35
2022-10-12T01:16:33.017Z,3.00
2022-10-12T01:18:42.858Z,3.35
2022-10-12T01:21:03.148Z,3.65
2022-10-12T01:23:25.115Z,3.40
2022-10-12T01:26:08.199Z,2.78
2022-10-12T01:28:23.619Z,3.03
2022-10-12T01:30:40.434Z,3.42
2022-10-12T01:32:42.053Z,3.15
2022-10-12T01:34:59.931Z,3.35
2022-10-12T01:37:08.870Z,3.05
2022-10-12T01:39:16.670Z,3.28
2022-10-12T01:41:38.957Z,3.67
2022-10-12T01:43:42.979Z,3.65
2022-10-12T01:45:44.957Z,3.72
2022-10-12T01:47:49.690Z,3.55
2022-10-12T01:49:51.450Z,3.33
2022-10-12T01:51:56.529Z,3.00
2022-10-12T01:54:03.326Z,2.92
2022-10-12T01:56:14.192Z,3.25
2022-10-12T01:58:34.612Z,2.65
2022-10-12T02:00:43.025Z,3.53
2022-10-12T02:02:56.829Z,3.05
2022-10-12T02:05:06.201Z,3.10
2022-10-12T02:07:29.995Z,3.17
2022-10-12T02:09:34.362Z,1.90
2022-10-12T02:11:38.184Z,2.65
2022-10-12T02:13:44.340Z,3.17
2022-10-12T02:15:48.277Z,2.45
2022-10-12T02:17:51.502Z,3.85
2022-10-12T02:19:57.973Z,3.20
2022-10-12T02:22:02.774Z,3.30
2022-10-12T02:24:09.999Z,3.33
2022-10-12T02:26:12.916Z,3.15
2022-10-12T02:28:17.352Z,2.60
2022-10-12T02:30:21.212Z,2.50
2022-10-12T02:32:32.029Z,2.25
2022-10-12T02:34:50.927Z,2.63
2022-10-12T02:36:58.255Z,2.40
2022-10-12T02:39:08.180Z,3.58
2022-10-12T02:41:14.055Z,3.33
2022-10-12T02:43:31.489Z,3.17
2022-10-12T02:45:33.181Z,4.30
2022-10-12T02:47:35.457Z,3.88
2022-10-12T02:49:38.067Z,3.78
2022-10-12T02:51:40.690Z,3.60
2022-10-12T02:53:42.486Z,3.70
2022-10-12T02:55:52.821Z,4.20
2022-10-12T02:57:54.507Z,3.10
2022-10-12T02:59:56.158Z,2.72
2022-10-12T03:01:57.813Z,3.10
2022-10-12T03:03:59.449Z,2.53
2022-10-12T03:06:01.250Z,3.20
2022-10-12T03:08:02.993Z,2.40
2022-10-12T03:10:04.953Z,2.55
2022-10-12T03:12:06.598Z,2.92
2022-10-12T03:14:13.129Z,2.60
2022-10-12T03:16:14.717Z,2.75
2022-10-12T03:18:16.288Z,2.65
2022-10-12T03:20:18.024Z,3.08
2022-10-12T03:22:19.672Z,2.08
2022-10-12T03:24:21.373Z,2.70
2022-10-12T03:26:23.223Z,4.10
2022-10-12T03:28:24.952Z,4.60
2022-10-12T03:30:26.649Z,6.70
2022-10-12T03:32:28.385Z,6.32
2022-10-12T03:34:29.987Z,5.55
2022-10-12T03:36:32.250Z,3.70
2022-10-12T03:38:33.945Z,3.47
2022-10-12T03:40:36.074Z,3.75
2022-10-12T03:42:37.676Z,7.10
2022-10-12T03:44:39.362Z,5.72
2022-10-12T03:46:40.993Z,4.68
2022-10-12T03:48:42.694Z,5.28
2022-10-12T03:50:51.888Z,5.22
2022-10-12T03:52:53.557Z,4.10
2022-10-12T03:54:55.201Z,3.25
2022-10-12T03:56:56.926Z,3.58
2022-10-12T03:58:58.732Z,3.33
2022-10-12T04:01:00.424Z,3.05
2022-10-12T04:03:04.954Z,2.97
2022-10-12T04:05:07.210Z,2.72
2022-10-12T04:07:09.103Z,2.75
2022-10-12T04:09:10.745Z,3.45
2022-10-12T04:11:12.387Z,3.53
2022-10-12T04:13:14.002Z,2.55
2022-10-12T04:17:22.126Z,2.40
2022-10-12T04:19:23.817Z,1.92
2022-10-12T04:21:25.810Z,2.13
2022-10-12T04:23:27.763Z,2.20
2022-10-12T04:25:30.357Z,2.65
2022-10-12T04:27:32.208Z,2.40
2022-10-12T04:29:33.885Z,1.90
2022-10-12T04:31:35.537Z,2.30
2022-10-12T04:33:37.117Z,2.13
2022-10-12T04:35:38.790Z,2.15
2022-10-12T04:37:40.925Z,2.63
2022-10-12T04:39:42.866Z,2.90
2022-10-12T04:41:44.484Z,2.25
2022-10-12T04:43:46.153Z,2.20
2022-10-12T04:45:58.982Z,2.35
2022-10-12T04:48:00.778Z,2.47
2022-10-12T04:50:02.653Z,3.33
2022-10-12T04:52:04.451Z,3.20
2022-10-12T04:54:06.199Z,3.70
2022-10-12T04:56:08.217Z,2.95
2022-10-12T04:58:10.662Z,3.28
2022-10-12T05:00:12.749Z,2.85
2022-10-12T05:02:14.737Z,2.95
2022-10-12T05:04:16.609Z,2.40
2022-10-12T05:06:18.232Z,2.15
2022-10-12T05:08:20.007Z,2.53
2022-10-12T05:10:22.352Z,2.58
2022-10-12T05:12:26.333Z,2.55
2022-10-12T05:14:31.037Z,2.90
2022-10-12T05:16:35.067Z,2.85
2022-10-12T05:18:36.791Z,3.15
2022-10-12T05:20:38.858Z,3.05
2022-10-12T05:22:40.796Z,4.05
2022-10-12T05:24:42.620Z,4.88
2022-10-12T05:26:44.898Z,4.88
2022-10-12T05:28:46.822Z,4.43
2022-10-12T05:30:52.721Z,4.13
2022-10-12T05:32:54.637Z,3.72
2022-10-12T05:34:56.513Z,2.90
2022-10-12T05:36:58.457Z,2.85
2022-10-12T05:39:00.182Z,3.10
2022-10-12T05:41:01.809Z,2.47
2022-10-12T05:43:03.578Z,2.25
2022-10-12T05:45:06.201Z,2.60
2022-10-12T05:47:07.911Z,2.67
2022-10-12T05:49:09.818Z,2.97
2022-10-12T05:51:11.532Z,3.38
2022-10-12T05:53:13.776Z,4.35
2022-10-12T05:55:15.690Z,3.53
2022-10-12T05:57:21.087Z,4.88
2022-10-12T05:59:22.827Z,3.72
2022-10-12T06:01:24.575Z,4.75
2022-10-12T06:03:27.016Z,4.90
2022-10-12T06:05:29.766Z,5.13
2022-10-12T06:07:31.410Z,11.23
2022-10-12T06:09:33.462Z,13.55
2022-10-12T06:11:36.480Z,13.30
2022-10-12T06:13:38.515Z,14.68
2022-10-12T06:15:40.397Z,15.30
2022-10-12T06:17:42.097Z,9.77
2022-10-12T06:19:43.963Z,6.22
2022-10-12T06:21:45.619Z,7.32
2022-10-12T06:23:47.378Z,3.33
2022-10-12T06:25:53.709Z,3.92
2022-10-12T06:27:55.438Z,6.13
2022-10-12T06:29:57.120Z,5.13
2022-10-12T06:31:59.260Z,4.43
2022-10-12T06:34:01.086Z,3.53
2022-10-12T06:36:03.001Z,3.75
2022-10-12T06:38:04.653Z,2.97
2022-10-12T06:40:06.975Z,3.05
2022-10-12T06:42:09.068Z,5.30
2022-10-12T06:44:10.713Z,2.80
2022-10-12T06:46:12.494Z,2.90
2022-10-12T06:48:18.381Z,3.00
2022-10-12T06:50:20.560Z,3.00
2022-10-12T06:52:22.247Z,3.58
2022-10-12T06:54:24.249Z,2.70
2022-10-12T06:56:25.904Z,4.28
2022-10-12T06:58:27.594Z,3.67
2022-10-12T07:00:29.273Z,3.00
2022-10-12T07:02:30.941Z,3.97
2022-10-12T07:04:32.669Z,3.90
2022-10-12T07:06:34.695Z,3.78
2022-10-12T07:08:37.330Z,3.63
2022-10-12T07:10:39.194Z,4.68
2022-10-12T07:12:41.051Z,4.28
2022-10-12T07:14:43.042Z,4.70
2022-10-12T07:16:44.634Z,5.53
2022-10-12T07:18:46.336Z,5.55
2022-10-12T07:20:48.031Z,5.32
2022-10-12T07:22:49.715Z,4.18
2022-10-12T07:24:51.674Z,3.53
2022-10-12T07:26:53.326Z,3.85
2022-10-12T07:28:55.030Z,3.70
2022-10-12T07:31:01.869Z,2.75
2022-10-12T07:33:03.590Z,3.90
2022-10-12T07:35:05.723Z,3.40
2022-10-12T07:37:10.166Z,3.00
2022-10-12T07:39:11.876Z,3.05
2022-10-12T07:41:14.587Z,3.08
2022-10-12T07:43:16.829Z,2.70
2022-10-12T07:45:18.690Z,3.38
2022-10-12T07:47:21.470Z,2.50
2022-10-12T07:49:23.165Z,3.45
2022-10-12T07:51:24.944Z,3.50
2022-10-12T07:53:26.713Z,3.65
2022-10-12T07:55:29.810Z,3.78
2022-10-12T07:57:31.554Z,2.50
2022-10-12T07:59:33.192Z,2.90
2022-10-12T08:01:35.228Z,3.33
2022-10-12T08:03:39.845Z,2.80
2022-10-12T08:05:42.478Z,2.58
2022-10-12T08:07:44.382Z,2.55
2022-10-12T08:09:48.301Z,2.80
2022-10-12T08:11:49.939Z,2.65
2022-10-12T08:13:51.594Z,2.13
2022-10-12T08:15:53.242Z,2.05
2022-10-12T08:17:54.831Z,2.30
2022-10-12T08:19:56.442Z,2.78
2022-10-12T08:21:58.150Z,2.58
2022-10-12T08:23:59.795Z,2.22
2022-10-12T08:26:01.688Z,2.17
2022-10-12T08:28:03.718Z,2.35
2022-10-12T08:30:06.499Z,2.00
2022-10-12T08:32:08.307Z,1.95
2022-10-12T08:34:10.171Z,2.45
2022-10-12T08:36:12.485Z,2.05
2022-10-12T08:38:15.098Z,3.00
2022-10-12T08:40:19.405Z,2.28
2022-10-12T08:42:55.542Z,2.53
2022-10-12T08:45:24.674Z,2.50
2022-10-12T08:47:44.474Z,1.70
2022-10-12T08:49:49.919Z,2.33
2022-10-12T08:51:52.561Z,2.53
2022-10-12T08:54:07.121Z,2.70
2022-10-12T08:56:09.354Z,1.75
2022-10-12T08:58:17.752Z,2.50
2022-10-12T09:00:19.973Z,2.00
2022-10-12T09:02:43.292Z,1.88
2022-10-12T09:05:00.606Z,1.65
2022-10-12T09:07:09.883Z,2.03
2022-10-12T09:09:20.337Z,1.85
2022-10-12T09:11:47.087Z,2.20
2022-10-12T09:13:57.973Z,2.05
2022-10-12T09:16:06.348Z,2.35
2022-10-12T09:18:40.571Z,2.13
2022-10-12T09:20:51.444Z,2.13
2022-10-12T09:23:00.107Z,2.42
2022-10-12T09:25:02.594Z,2.45
2022-10-12T09:27:24.470Z,2.20
2022-10-12T09:29:28.961Z,2.20
2022-10-12T09:31:52.229Z,3.08
2022-10-12T09:33:59.008Z,2.38
2022-10-12T09:36:00.720Z,2.45
2022-10-12T09:38:02.901Z,2.90
2022-10-12T09:40:05.198Z,2.42
2022-10-12T09:42:06.868Z,2.20
2022-10-12T09:44:16.146Z,2.40
2022-10-12T09:46:22.213Z,2.47
2022-10-12T09:48:24.936Z,2.80
2022-10-12T09:50:52.814Z,3.20
2022-10-12T09:52:55.368Z,2.20
2022-10-12T09:55:04.873Z,2.38
2022-10-12T09:57:07.633Z,2.70
2022-10-12T09:59:29.314Z,2.80
2022-10-12T10:01:33.651Z,2.85
2022-10-12T10:03:35.488Z,2.67
2022-10-12T10:05:38.506Z,3.38
2022-10-12T10:07:40.202Z,2.72
2022-10-12T10:09:41.961Z,3.88
2022-10-12T10:11:43.578Z,3.83
2022-10-12T10:13:49.032Z,4.20
2022-10-12T10:15:53.540Z,4.45
2022-10-12T10:18:00.452Z,3.58
2022-10-12T10:20:04.826Z,4.53
2022-10-12T10:22:09.410Z,4.18
2022-10-12T10:24:23.340Z,3.30
2022-10-12T10:26:26.917Z,4.00
2022-10-12T10:28:31.447Z,3.65
2022-10-12T10:30:37.991Z,4.30
2022-10-12T10:32:43.651Z,3.25
2022-10-12T10:34:45.408Z,4.30
2022-10-12T10:36:56.177Z,3.25
2022-10-12T10:39:13.181Z,4.03
2022-10-12T10:41:18.169Z,3.88
2022-10-12T10:43:30.696Z,4.18
2022-10-12T10:45:52.420Z,4.32
2022-10-12T10:48:01.357Z,3.38
2022-10-12T10:50:08.562Z,3.40
2022-10-12T10:52:30.527Z,4.18
2022-10-12T10:54:41.040Z,3.97
2022-10-12T10:56:46.656Z,4.60
2022-10-12T10:58:55.485Z,4.47
2022-10-12T11:01:00.644Z,3.63
2022-10-12T11:03:15.254Z,4.18
2022-10-12T11:05:23.521Z,4.47
2022-10-12T11:07:48.774Z,4.65
2022-10-12T11:09:55.368Z,4.32
2022-10-12T11:12:05.854Z,3.88
2022-10-12T11:14:13.552Z,3.80
2022-10-12T11:16:38.007Z,3.60
2022-10-12T11:18:47.574Z,4.47
2022-10-12T11:20:55.617Z,3.53
2022-10-12T11:23:10.913Z,4.38
2022-10-12T11:25:34.078Z,4.03
2022-10-12T11:27:40.539Z,3.65
2022-10-12T11:29:42.656Z,3.40
2022-10-12T11:31:56.976Z,3.90
2022-10-12T11:34:03.568Z,3.08
2022-10-12T11:36:12.214Z,3.67
2022-10-12T11:38:16.073Z,4.38
2022-10-12T11:40:30.957Z,3.75
2022-10-12T11:42:43.381Z,3.45
2022-10-12T11:44:47.780Z,3.88
2022-10-12T11:47:00.856Z,3.70
2022-10-12T11:49:09.261Z,3.70
2022-10-12T11:51:11.540Z,3.90
2022-10-12T11:53:23.848Z,3.75
2022-10-12T11:55:44.528Z,4.10
2022-10-12T11:57:46.516Z,4.50
2022-10-12T12:00:00.968Z,4.38
2022-10-12T12:02:05.581Z,3.80
2022-10-12T12:04:39.751Z,4.20
2022-10-12T12:06:34.804Z,4.15
2022-10-12T12:08:39.666Z,3.88
2022-10-12T12:10:41.532Z,4.65
2022-10-12T12:13:15.084Z,3.55
2022-10-12T12:15:21.857Z,4.80
2022-10-12T12:17:31.982Z,4.63
2022-10-12T12:19:38.877Z,3.60
2022-10-12T12:22:14.673Z,3.42
2022-10-12T12:24:17.029Z,4.65
2022-10-12T12:26:20.723Z,3.95
2022-10-12T12:28:24.134Z,4.75
2022-10-12T12:30:37.764Z,4.65
2022-10-12T12:32:43.309Z,4.63
2022-10-12T12:35:00.764Z,5.07
2022-10-12T12:37:11.650Z,5.15
2022-10-12T12:39:33.287Z,5.07
2022-10-12T12:41:55.139Z,5.68
2022-10-12T12:44:04.580Z,4.60
2022-10-12T12:46:12.680Z,5.35
2022-10-12T12:48:40.209Z,4.72
2022-10-12T12:50:41.812Z,6.53
2022-10-12T12:52:43.667Z,6.10
2022-10-12T12:55:14.278Z,6.07
2022-10-12T12:57:46.481Z,5.85
2022-10-12T13:00:09.198Z,7.63
2022-10-12T13:02:26.056Z,7.50
2022-10-12T13:04:36.478Z,6.40
2022-10-12T13:06:52.938Z,6.32
2022-10-12T13:09:00.144Z,5.85
2022-10-12T13:11:33.659Z,6.07
2022-10-12T13:13:54.072Z,5.35
2022-10-12T13:16:57.232Z,6.00
2022-10-12T13:19:03.676Z,5.13
2022-10-12T13:21:14.735Z,5.15
2022-10-12T13:23:19.907Z,6.53
2022-10-12T13:25:30.510Z,5.65
2022-10-12T13:27:42.212Z,6.22
2022-10-12T13:29:46.360Z,6.63
2022-10-12T13:31:49.076Z,6.28
2022-10-12T13:33:57.611Z,6.80
2022-10-12T13:36:05.256Z,6.75
2022-10-12T13:38:21.065Z,7.00
2022-10-12T13:40:30.824Z,6.65
2022-10-12T13:42:38.178Z,7.70
2022-10-12T13:44:41.546Z,8.63
2022-10-12T13:46:51.959Z,7.68
2022-10-12T13:48:59.615Z,7.28
2022-10-12T13:51:03.927Z,9.10
2022-10-12T13:53:13.814Z,7.25
2022-10-12T13:55:16.663Z,7.00
2022-10-12T13:57:50.111Z,6.97
2022-10-12T14:00:22.343Z,7.38
2022-10-12T14:02:26.382Z,7.93
2022-10-12T14:04:33.062Z,7.45
2022-10-12T14:06:38.077Z,8.73
2022-10-12T14:08:39.836Z,7.50
2022-10-12T14:10:42.106Z,6.60
2022-10-12T14:12:48.592Z,6.93
2022-10-12T14:14:53.298Z,8.27
2022-10-12T14:16:55.002Z,5.72
2022-10-12T14:19:21.000Z,6.13
2022-10-12T14:21:33.407Z,6.50
2022-10-12T14:23:46.773Z,5.95
2022-10-12T14:25:56.081Z,5.88
2022-10-12T14:28:03.131Z,7.55
2022-10-12T14:30:21.431Z,6.38
2022-10-12T14:32:23.176Z,7.07
2022-10-12T14:34:27.516Z,6.95
2022-10-12T14:36:29.388Z,6.70
2022-10-12T14:38:43.756Z,6.40
2022-10-12T14:40:45.369Z,7.40
2022-10-12T14:43:24.506Z,7.50
2022-10-12T14:45:26.766Z,7.57
2022-10-12T14:47:32.199Z,7.47
2022-10-12T14:49:37.278Z,8.15
2022-10-12T14:51:38.905Z,7.75
2022-10-12T14:53:40.620Z,8.00
2022-10-12T14:55:42.667Z,7.03
2022-10-12T14:57:44.792Z,6.47
2022-10-12T14:59:47.353Z,6.43
2022-10-12T15:01:51.362Z,6.68
2022-10-12T15:03:53.477Z,7.75
2022-10-12T15:05:55.105Z,6.90
2022-10-12T15:07:56.730Z,7.07
2022-10-12T15:09:58.627Z,6.28
2022-10-12T15:12:00.348Z,6.57
2022-10-12T15:14:02.125Z,7.25
2022-10-12T15:16:03.905Z,6.10
2022-10-12T15:18:05.898Z,6.05
2022-10-12T15:20:10.823Z,6.65
2022-10-12T15:22:18.096Z,6.93
2022-10-12T15:24:19.932Z,6.32
2022-10-12T15:26:22.595Z,7.57
2022-10-12T15:28:24.452Z,5.68
2022-10-12T15:30:26.245Z,6.63
2022-10-12T15:32:27.915Z,6.05
2022-10-12T15:34:29.911Z,6.30
2022-10-12T15:36:31.641Z,6.60
2022-10-12T15:38:33.365Z,7.18
2022-10-12T15:40:35.121Z,5.65
2022-10-12T15:42:38.601Z,5.55
2022-10-12T15:44:41.477Z,5.78
2022-10-12T15:46:44.285Z,5.22
2022-10-12T15:48:46.230Z,6.10
2022-10-12T15:50:57.709Z,6.63
2022-10-12T15:52:59.501Z,7.03
2022-10-12T15:55:01.693Z,6.60
2022-10-12T15:57:03.553Z,5.72
2022-10-12T15:59:05.487Z,6.82
2022-10-12T16:01:07.479Z,5.50
2022-10-12T16:03:14.530Z,5.70
2022-10-12T16:05:22.279Z,6.18
2022-10-12T16:07:23.923Z,5.93
2022-10-12T16:09:25.671Z,6.05
2022-10-12T16:11:27.333Z,5.38
2022-10-12T16:13:29.109Z,5.88
2022-10-12T16:15:32.586Z,5.28
2022-10-12T16:17:34.255Z,5.75
2022-10-12T16:19:35.929Z,6.75
2022-10-12T16:21:37.581Z,6.53
2022-10-12T16:23:40.414Z,5.05
2022-10-12T16:25:42.414Z,6.20
2022-10-12T16:27:45.479Z,6.32
2022-10-12T16:29:47.182Z,5.78
2022-10-12T16:31:48.883Z,7.68
2022-10-12T16:33:50.619Z,6.93
2022-10-12T16:35:52.557Z,7.97
2022-10-12T16:37:54.336Z,6.57
2022-10-12T16:39:57.033Z,8.93
2022-10-12T16:41:58.785Z,10.63
2022-10-12T16:44:00.519Z,8.95
2022-10-12T16:46:02.283Z,8.23
2022-10-12T16:48:04.166Z,9.40
2022-10-12T16:50:06.610Z,9.13
2022-10-12T16:52:08.545Z,8.90
2022-10-12T16:54:10.252Z,8.77
2022-10-12T16:56:12.068Z,9.65
2022-10-12T16:58:13.753Z,10.07
2022-10-12T17:00:18.766Z,11.57
2022-10-12T17:02:20.559Z,12.27
2022-10-12T17:04:22.398Z,14.07
2022-10-12T17:06:24.077Z,11.15
2022-10-12T17:08:26.079Z,9.95
2022-10-12T17:10:27.874Z,10.52
2022-10-12T17:12:29.518Z,10.90
2022-10-12T17:14:31.368Z,13.23
2022-10-12T17:16:48.451Z,14.90
2022-10-12T17:18:50.191Z,14.82
2022-10-12T17:20:52.927Z,15.35
2022-10-12T17:22:54.842Z,13.57
2022-10-12T17:24:56.714Z,10.88
2022-10-12T17:26:59.069Z,12.00
2022-10-12T17:29:00.913Z,10.70
2022-10-12T17:31:10.772Z,11.20
2022-10-12T17:33:13.288Z,14.35
2022-10-12T17:35:15.085Z,13.95
2022-10-12T17:37:16.947Z,13.68
2022-10-12T17:39:19.091Z,15.88
2022-10-12T17:41:20.934Z,15.27
2022-10-12T17:43:22.615Z,16.25
2022-10-12T17:45:24.373Z,14.50
2022-10-12T17:47:26.101Z,14.60
2022-10-12T17:49:28.462Z,15.02
2022-10-12T17:51:30.328Z,12.52
2022-10-12T17:53:32.668Z,11.63
2022-10-12T17:55:48.243Z,11.85
2022-10-12T17:57:50.545Z,9.02
2022-10-12T17:59:52.241Z,8.98
2022-10-12T18:01:54.459Z,9.10
2022-10-12T18:03:56.477Z,8.85
2022-10-12T18:06:08.284Z,8.63
2022-10-12T18:08:09.916Z,10.20
2022-10-12T18:10:11.551Z,11.35
2022-10-12T18:12:13.208Z,10.90
2022-10-12T18:14:15.328Z,14.15
2022-10-12T18:16:21.751Z,11.75
2022-10-12T18:18:23.455Z,13.43
2022-10-12T18:20:25.297Z,14.35
2022-10-12T18:22:26.934Z,14.30
2022-10-12T18:24:28.635Z,12.07
2022-10-12T18:26:30.649Z,11.23
2022-10-12T18:28:32.518Z,11.73
2022-10-12T18:30:34.767Z,10.68
2022-10-12T18:32:36.433Z,12.10
2022-10-12T18:34:38.879Z,11.35
2022-10-12T18:36:42.814Z,10.75
2022-10-12T18:38:44.664Z,9.32
2022-10-12T18:40:47.633Z,8.73
2022-10-12T18:42:49.283Z,9.95
2022-10-12T18:44:50.912Z,9.68
2022-10-12T18:46:52.774Z,9.48
2022-10-12T18:48:54.858Z,9.60
2022-10-12T18:50:57.620Z,9.73
2022-10-12T18:52:59.303Z,9.30
2022-10-12T18:55:01.021Z,9.20
2022-10-12T18:57:02.698Z,10.20
2022-10-12T18:59:04.646Z,13.18
2022-10-12T19:01:11.298Z,12.57
2022-10-12T19:03:13.262Z,12.95
2022-10-12T19:05:14.970Z,11.50
2022-10-12T19:07:17.062Z,13.05
2022-10-12T19:09:18.940Z,11.65
2022-10-12T19:11:22.108Z,11.57
2022-10-12T19:13:23.773Z,9.55
2022-10-12T19:15:26.315Z,7.78
2022-10-12T19:17:28.121Z,7.95
2022-10-12T19:19:29.829Z,7.57
2022-10-12T19:21:31.836Z,7.70
2022-10-12T19:23:34.089Z,8.18
2022-10-12T19:25:38.741Z,7.95
2022-10-12T19:27:40.347Z,9.52
2022-10-12T19:29:45.645Z,11.07
2022-10-12T19:31:48.911Z,11.88
2022-10-12T19:33:50.628Z,11.52
2022-10-12T19:35:52.352Z,10.68
2022-10-12T19:37:54.572Z,9.52
2022-10-12T19:39:56.212Z,10.80
2022-10-12T19:41:58.060Z,11.20
2022-10-12T19:44:02.183Z,11.00
2022-10-12T19:46:05.819Z,10.00
2022-10-12T19:48:07.746Z,9.15
2022-10-12T19:50:09.711Z,9.23
2022-10-12T19:52:11.351Z,9.02
2022-10-12T19:54:14.515Z,9.25
2022-10-12T19:56:18.649Z,9.50
2022-10-12T19:58:20.314Z,9.57
2022-10-12T20:00:22.077Z,9.38
2022-10-12T20:02:23.720Z,8.95
2022-10-12T20:04:25.474Z,9.48
2022-10-12T20:06:29.207Z,9.48
2022-10-12T20:08:30.867Z,10.18
2022-10-12T20:10:32.453Z,9.55
2022-10-12T20:12:34.336Z,9.73
2022-10-12T20:14:35.960Z,10.02
2022-10-12T20:16:37.863Z,9.80
2022-10-12T20:18:39.593Z,10.75
2022-10-12T20:20:44.218Z,10.27
2022-10-12T20:22:45.851Z,9.32
2022-10-12T20:24:47.493Z,9.45
2022-10-12T20:26:49.131Z,8.82
2022-10-12T20:28:51.475Z,9.23
2022-10-12T20:30:59.228Z,10.88
2022-10-12T20:33:00.865Z,10.27
2022-10-12T20:35:02.733Z,9.98
2022-10-12T20:37:04.375Z,9.82
2022-10-12T20:39:06.108Z,9.85
2022-10-12T20:41:10.520Z,9.80
2022-10-12T20:43:12.685Z,8.52
2022-10-12T20:45:14.531Z,10.20
2022-10-12T20:47:17.567Z,9.93
2022-10-12T20:49:19.756Z,10.10
2022-10-12T20:51:28.004Z,12.40
2022-10-12T20:53:29.746Z,10.02
2022-10-12T20:55:31.422Z,11.57
2022-10-12T20:57:33.036Z,11.57
2022-10-12T20:59:37.005Z,10.85
2022-10-12T21:01:38.659Z,10.95
2022-10-12T21:03:40.593Z,12.02
2022-10-12T21:05:42.205Z,11.30
2022-10-12T21:07:43.812Z,12.95
2022-10-12T21:09:45.642Z,13.32
2022-10-12T21:11:47.362Z,14.95
2022-10-12T21:13:49.238Z,14.40
2022-10-12T21:15:54.906Z,13.25
2022-10-12T21:17:56.505Z,14.50
2022-10-12T21:19:58.117Z,15.45
2022-10-12T21:21:59.790Z,14.20
2022-10-12T21:24:01.655Z,17.63
2022-10-12T21:26:18.076Z,16.10
2022-10-12T21:28:21.170Z,17.02
2022-10-12T21:30:22.881Z,14.02
2022-10-12T21:32:24.534Z,14.63
2022-10-12T21:34:26.242Z,12.95
2022-10-12T21:36:28.327Z,12.43
2022-10-12T21:38:30.713Z,12.15
2022-10-12T21:40:32.826Z,10.95
2022-10-12T21:42:34.430Z,10.10
2022-10-12T21:44:36.062Z,9.80
2022-10-12T21:46:37.766Z,9.18
2022-10-12T21:48:40.278Z,9.68
2022-10-12T21:50:41.913Z,9.63
2022-10-12T21:52:44.857Z,8.98
2022-10-12T21:54:47.985Z,9.35
2022-10-12T21:56:49.619Z,8.70
2022-10-12T21:58:52.977Z,9.68
2022-10-12T22:01:04.574Z,9.75
2022-10-12T22:03:06.288Z,9.93
2022-10-12T22:05:07.980Z,11.93
2022-10-12T22:07:09.656Z,14.80
2022-10-12T22:09:16.803Z,11.02
2022-10-12T22:11:18.559Z,10.65
2022-10-12T22:13:20.443Z,11.30
2022-10-12T22:15:22.122Z,11.30
2022-10-12T22:17:24.025Z,11.25
2022-10-12T22:19:25.730Z,12.05
2022-10-12T22:21:28.033Z,10.82
2022-10-12T22:23:29.706Z,13.05
2022-10-12T22:25:31.319Z,11.20
2022-10-12T22:27:32.977Z,12.05
2022-10-12T22:29:35.149Z,13.68
2022-10-12T22:31:39.024Z,12.40
2022-10-12T22:33:41.272Z,12.10
2022-10-12T22:35:53.065Z,12.93
2022-10-12T22:37:57.734Z,12.02
2022-10-12T22:39:59.359Z,13.02
2022-10-12T22:42:00.933Z,14.88
2022-10-12T22:44:02.808Z,14.15
2022-10-12T22:46:04.961Z,14.52
2022-10-12T22:48:06.592Z,15.77
2022-10-12T22:50:08.680Z,14.75
2022-10-12T22:52:10.319Z,15.95
2022-10-12T22:54:13.381Z,15.10
2022-10-12T22:56:17.315Z,13.27
2022-10-12T22:58:18.976Z,14.70
2022-10-12T23:00:20.665Z,15.02
2022-10-12T23:02:22.283Z,14.55
2022-10-12T23:04:23.958Z,15.20
2022-10-12T23:06:26.080Z,14.27
2022-10-12T23:08:28.220Z,14.27
2022-10-12T23:10:29.906Z,13.48
2022-10-12T23:12:31.581Z,13.82
2022-10-12T23:14:33.182Z,13.90
2022-10-12T23:16:34.804Z,14.75
2022-10-12T23:18:36.878Z,14.40
2022-10-12T23:20:41.922Z,13.15
2022-10-12T23:22:43.719Z,11.93
2022-10-12T23:24:45.363Z,11.98
2022-10-12T23:26:46.974Z,11.68
2022-10-12T23:28:49.733Z,11.73
2022-10-12T23:30:51.395Z,12.50
2022-10-12T23:32:53.007Z,11.80
2022-10-12T23:34:54.662Z,12.35
2022-10-12T23:36:56.292Z,13.73
2022-10-12T23:39:01.632Z,13.02
2022-10-12T23:41:04.737Z,11.90
2022-10-12T23:43:06.455Z,13.48
2022-10-12T23:45:08.324Z,13.18
2022-10-12T23:47:09.968Z,13.65
2022-10-12T23:49:11.583Z,13.20
2022-10-12T23:51:13.227Z,12.30
2022-10-12T23:53:14.976Z,12.55
2022-10-12T23:55:16.737Z,12.20
2022-10-12T23:57:45.076Z,11.13
2022-10-12T23:59:40.027Z,12.85
